sensor_id;sensor_type;location;lat;lon;timestamp;P1;durP1;ratioP1;P2;durP2;ratioP2
48667;SDS011;34453;52.198;5.004;2024-03-07T00:01:57;47.72;;;24.88;;
48667;SDS011;34453;52.198;5.004;2024-03-07T00:04:22;49.05;;;26.08;;
48667;SDS011;34453;52.198;5.004;2024-03-07T00:06:47;50.72;;;25.17;;
48667;SDS011;34453;52.198;5.004;2024-03-07T00:09:13;50.53;;;26.52;;
48667;SDS011;34453;52.198;5.004;2024-03-07T00:11:40;49.97;;;27.42;;
48667;SDS011;34453;52.198;5.004;2024-03-07T00:14:06;47.08;;;25.73;;
48667;SDS011;34453;52.198;5.004;2024-03-07T00:16:31;50.83;;;25.80;;
48667;SDS011;34453;52.198;5.004;2024-03-07T00:18:58;46.42;;;25.27;;
48667;SDS011;34453;52.198;5.004;2024-03-07T00:21:24;47.35;;;26.42;;
48667;SDS011;34453;52.198;5.004;2024-03-07T00:23:49;53.08;;;28.58;;
48667;SDS011;34453;52.198;5.004;2024-03-07T00:26:14;48.72;;;26.20;;
48667;SDS011;34453;52.198;5.004;2024-03-07T00:28:41;52.08;;;26.65;;
48667;SDS011;34453;52.198;5.004;2024-03-07T00:31:07;56.38;;;28.08;;
48667;SDS011;34453;52.198;5.004;2024-03-07T00:33:34;48.00;;;26.38;;
48667;SDS011;34453;52.198;5.004;2024-03-07T00:35:59;43.03;;;25.42;;
48667;SDS011;34453;52.198;5.004;2024-03-07T00:38:25;49.70;;;27.23;;
48667;SDS011;34453;52.198;5.004;2024-03-07T00:40:50;51.95;;;25.60;;
48667;SDS011;34453;52.198;5.004;2024-03-07T00:43:16;48.47;;;26.40;;
48667;SDS011;34453;52.198;5.004;2024-03-07T00:45:41;43.03;;;23.33;;
48667;SDS011;34453;52.198;5.004;2024-03-07T00:48:07;42.00;;;22.17;;
48667;SDS011;34453;52.198;5.004;2024-03-07T00:50:32;40.47;;;22.88;;
48667;SDS011;34453;52.198;5.004;2024-03-07T00:52:57;50.15;;;25.55;;
48667;SDS011;34453;52.198;5.004;2024-03-07T00:55:23;43.75;;;23.75;;
48667;SDS011;34453;52.198;5.004;2024-03-07T00:57:48;47.38;;;25.30;;
48667;SDS011;34453;52.198;5.004;2024-03-07T01:00:14;45.45;;;24.90;;
48667;SDS011;34453;52.198;5.004;2024-03-07T01:02:42;45.72;;;24.45;;
48667;SDS011;34453;52.198;5.004;2024-03-07T01:05:11;50.70;;;27.47;;
48667;SDS011;34453;52.198;5.004;2024-03-07T01:07:38;45.13;;;24.77;;
48667;SDS011;34453;52.198;5.004;2024-03-07T01:10:04;45.28;;;24.45;;
48667;SDS011;34453;52.198;5.004;2024-03-07T01:12:31;43.35;;;23.58;;
48667;SDS011;34453;52.198;5.004;2024-03-07T01:14:56;44.30;;;23.27;;
48667;SDS011;34453;52.198;5.004;2024-03-07T01:17:25;42.58;;;23.60;;
48667;SDS011;34453;52.198;5.004;2024-03-07T01:19:51;48.70;;;24.75;;
48667;SDS011;34453;52.198;5.004;2024-03-07T01:22:16;46.95;;;25.92;;
48667;SDS011;34453;52.198;5.004;2024-03-07T01:24:42;54.00;;;27.05;;
48667;SDS011;34453;52.198;5.004;2024-03-07T01:27:09;54.47;;;29.35;;
48667;SDS011;34453;52.198;5.004;2024-03-07T01:29:34;56.10;;;29.15;;
48667;SDS011;34453;52.198;5.004;2024-03-07T01:32:00;50.28;;;26.48;;
48667;SDS011;34453;52.198;5.004;2024-03-07T01:34:25;58.50;;;28.13;;
48667;SDS011;34453;52.198;5.004;2024-03-07T01:36:50;47.47;;;26.50;;
48667;SDS011;34453;52.198;5.004;2024-03-07T01:39:16;57.13;;;28.50;;
48667;SDS011;34453;52.198;5.004;2024-03-07T01:41:41;54.03;;;26.83;;
48667;SDS011;34453;52.198;5.004;2024-03-07T01:44:07;50.30;;;28.02;;
48667;SDS011;34453;52.198;5.004;2024-03-07T01:46:32;53.83;;;29.30;;
48667;SDS011;34453;52.198;5.004;2024-03-07T01:48:58;55.95;;;30.40;;
48667;SDS011;34453;52.198;5.004;2024-03-07T01:51:24;56.85;;;29.77;;
48667;SDS011;34453;52.198;5.004;2024-03-07T01:53:50;55.35;;;31.73;;
48667;SDS011;34453;52.198;5.004;2024-03-07T01:56:16;55.45;;;31.00;;
48667;SDS011;34453;52.198;5.004;2024-03-07T01:58:42;57.45;;;30.30;;
48667;SDS011;34453;52.198;5.004;2024-03-07T02:01:07;53.30;;;29.35;;
48667;SDS011;34453;52.198;5.004;2024-03-07T02:03:33;55.83;;;28.60;;
48667;SDS011;34453;52.198;5.004;2024-03-07T02:05:58;50.70;;;28.77;;
48667;SDS011;34453;52.198;5.004;2024-03-07T02:08:24;59.00;;;31.15;;
48667;SDS011;34453;52.198;5.004;2024-03-07T02:10:49;57.83;;;31.25;;
48667;SDS011;34453;52.198;5.004;2024-03-07T02:13:15;61.85;;;30.92;;
48667;SDS011;34453;52.198;5.004;2024-03-07T02:15:41;58.03;;;30.92;;
48667;SDS011;34453;52.198;5.004;2024-03-07T02:18:08;58.85;;;31.23;;
48667;SDS011;34453;52.198;5.004;2024-03-07T02:20:34;59.50;;;32.42;;
48667;SDS011;34453;52.198;5.004;2024-03-07T02:22:59;70.10;;;31.33;;
48667;SDS011;34453;52.198;5.004;2024-03-07T02:25:25;59.78;;;29.23;;
48667;SDS011;34453;52.198;5.004;2024-03-07T02:27:51;62.20;;;31.08;;
48667;SDS011;34453;52.198;5.004;2024-03-07T02:30:16;60.78;;;31.50;;
48667;SDS011;34453;52.198;5.004;2024-03-07T02:32:43;70.93;;;31.40;;
48667;SDS011;34453;52.198;5.004;2024-03-07T02:35:14;63.65;;;31.88;;
48667;SDS011;34453;52.198;5.004;2024-03-07T02:37:40;70.45;;;32.13;;
48667;SDS011;34453;52.198;5.004;2024-03-07T02:40:06;61.25;;;29.58;;
48667;SDS011;34453;52.198;5.004;2024-03-07T02:42:32;59.72;;;29.88;;
48667;SDS011;34453;52.198;5.004;2024-03-07T02:44:57;54.20;;;30.75;;
48667;SDS011;34453;52.198;5.004;2024-03-07T02:47:23;57.30;;;31.02;;
48667;SDS011;34453;52.198;5.004;2024-03-07T02:49:48;72.10;;;32.70;;
48667;SDS011;34453;52.198;5.004;2024-03-07T02:52:14;70.63;;;32.78;;
48667;SDS011;34453;52.198;5.004;2024-03-07T02:54:39;69.45;;;33.63;;
48667;SDS011;34453;52.198;5.004;2024-03-07T02:57:05;75.78;;;34.80;;
48667;SDS011;34453;52.198;5.004;2024-03-07T02:59:30;67.38;;;33.20;;
48667;SDS011;34453;52.198;5.004;2024-03-07T03:01:57;64.07;;;33.65;;
48667;SDS011;34453;52.198;5.004;2024-03-07T03:04:22;62.67;;;33.00;;
48667;SDS011;34453;52.198;5.004;2024-03-07T03:06:48;71.68;;;33.78;;
48667;SDS011;34453;52.198;5.004;2024-03-07T03:09:13;69.53;;;33.58;;
48667;SDS011;34453;52.198;5.004;2024-03-07T03:11:45;66.68;;;33.75;;
48667;SDS011;34453;52.198;5.004;2024-03-07T03:14:11;63.03;;;32.08;;
48667;SDS011;34453;52.198;5.004;2024-03-07T03:16:40;62.97;;;33.67;;
48667;SDS011;34453;52.198;5.004;2024-03-07T03:19:07;62.78;;;31.42;;
48667;SDS011;34453;52.198;5.004;2024-03-07T03:21:34;71.53;;;35.38;;
48667;SDS011;34453;52.198;5.004;2024-03-07T03:23:59;63.03;;;35.60;;
48667;SDS011;34453;52.198;5.004;2024-03-07T03:26:24;62.10;;;31.45;;
48667;SDS011;34453;52.198;5.004;2024-03-07T03:28:50;67.72;;;34.03;;
48667;SDS011;34453;52.198;5.004;2024-03-07T03:31:15;70.68;;;33.03;;
48667;SDS011;34453;52.198;5.004;2024-03-07T03:33:41;66.10;;;33.58;;
48667;SDS011;34453;52.198;5.004;2024-03-07T03:36:06;61.60;;;32.75;;
48667;SDS011;34453;52.198;5.004;2024-03-07T03:38:32;69.57;;;31.63;;
48667;SDS011;34453;52.198;5.004;2024-03-07T03:40:57;64.55;;;32.85;;
48667;SDS011;34453;52.198;5.004;2024-03-07T03:43:22;62.28;;;31.73;;
48667;SDS011;34453;52.198;5.004;2024-03-07T03:45:48;68.10;;;33.67;;
48667;SDS011;34453;52.198;5.004;2024-03-07T03:48:13;58.63;;;32.10;;
48667;SDS011;34453;52.198;5.004;2024-03-07T03:50:39;62.08;;;31.27;;
48667;SDS011;34453;52.198;5.004;2024-03-07T03:53:04;63.58;;;34.50;;
48667;SDS011;34453;52.198;5.004;2024-03-07T03:55:31;61.40;;;32.83;;
48667;SDS011;34453;52.198;5.004;2024-03-07T03:57:57;57.85;;;30.10;;
48667;SDS011;34453;52.198;5.004;2024-03-07T04:00:23;60.97;;;30.52;;
48667;SDS011;34453;52.198;5.004;2024-03-07T04:02:48;60.58;;;32.45;;
48667;SDS011;34453;52.198;5.004;2024-03-07T04:05:14;61.33;;;32.00;;
48667;SDS011;34453;52.198;5.004;2024-03-07T04:07:40;63.67;;;32.78;;
48667;SDS011;34453;52.198;5.004;2024-03-07T04:10:09;65.53;;;32.28;;
48667;SDS011;34453;52.198;5.004;2024-03-07T04:12:34;57.50;;;31.90;;
48667;SDS011;34453;52.198;5.004;2024-03-07T04:15:02;62.72;;;31.25;;
48667;SDS011;34453;52.198;5.004;2024-03-07T04:17:29;59.15;;;30.95;;
48667;SDS011;34453;52.198;5.004;2024-03-07T04:19:54;60.85;;;30.65;;
48667;SDS011;34453;52.198;5.004;2024-03-07T04:22:20;56.78;;;31.05;;
48667;SDS011;34453;52.198;5.004;2024-03-07T04:24:45;60.03;;;31.88;;
48667;SDS011;34453;52.198;5.004;2024-03-07T04:27:11;55.53;;;30.67;;
48667;SDS011;34453;52.198;5.004;2024-03-07T04:29:36;54.45;;;30.73;;
48667;SDS011;34453;52.198;5.004;2024-03-07T04:32:02;64.50;;;33.03;;
48667;SDS011;34453;52.198;5.004;2024-03-07T04:34:28;57.60;;;30.70;;
48667;SDS011;34453;52.198;5.004;2024-03-07T04:36:56;66.10;;;30.90;;
48667;SDS011;34453;52.198;5.004;2024-03-07T04:39:21;63.78;;;32.45;;
48667;SDS011;34453;52.198;5.004;2024-03-07T04:42:03;63.35;;;31.83;;
48667;SDS011;34453;52.198;5.004;2024-03-07T04:44:29;62.15;;;31.52;;
48667;SDS011;34453;52.198;5.004;2024-03-07T04:46:55;60.50;;;33.15;;
48667;SDS011;34453;52.198;5.004;2024-03-07T04:49:22;62.72;;;31.50;;
48667;SDS011;34453;52.198;5.004;2024-03-07T04:51:49;58.88;;;32.03;;
48667;SDS011;34453;52.198;5.004;2024-03-07T04:54:15;58.40;;;32.00;;
48667;SDS011;34453;52.198;5.004;2024-03-07T04:56:40;69.78;;;32.90;;
48667;SDS011;34453;52.198;5.004;2024-03-07T04:59:06;64.93;;;30.58;;
48667;SDS011;34453;52.198;5.004;2024-03-07T05:01:31;69.57;;;30.58;;
48667;SDS011;34453;52.198;5.004;2024-03-07T05:03:56;57.42;;;30.70;;
48667;SDS011;34453;52.198;5.004;2024-03-07T05:06:22;55.47;;;30.38;;
48667;SDS011;34453;52.198;5.004;2024-03-07T05:08:47;57.85;;;30.85;;
48667;SDS011;34453;52.198;5.004;2024-03-07T05:11:13;63.70;;;32.17;;
48667;SDS011;34453;52.198;5.004;2024-03-07T05:13:39;56.88;;;30.15;;
48667;SDS011;34453;52.198;5.004;2024-03-07T05:16:07;64.40;;;33.72;;
48667;SDS011;34453;52.198;5.004;2024-03-07T05:18:32;66.35;;;32.53;;
48667;SDS011;34453;52.198;5.004;2024-03-07T05:20:58;62.85;;;31.90;;
48667;SDS011;34453;52.198;5.004;2024-03-07T05:23:43;71.88;;;31.05;;
48667;SDS011;34453;52.198;5.004;2024-03-07T05:26:08;68.28;;;33.67;;
48667;SDS011;34453;52.198;5.004;2024-03-07T05:28:36;64.80;;;32.88;;
48667;SDS011;34453;52.198;5.004;2024-03-07T05:31:01;67.50;;;32.60;;
48667;SDS011;34453;52.198;5.004;2024-03-07T05:33:29;69.97;;;33.83;;
48667;SDS011;34453;52.198;5.004;2024-03-07T05:35:54;64.63;;;33.70;;
48667;SDS011;34453;52.198;5.004;2024-03-07T05:38:27;62.53;;;32.70;;
48667;SDS011;34453;52.198;5.004;2024-03-07T05:40:53;74.45;;;32.85;;
48667;SDS011;34453;52.198;5.004;2024-03-07T05:43:19;67.30;;;32.70;;
48667;SDS011;34453;52.198;5.004;2024-03-07T05:45:44;69.50;;;33.65;;
48667;SDS011;34453;52.198;5.004;2024-03-07T05:48:14;67.13;;;33.85;;
48667;SDS011;34453;52.198;5.004;2024-03-07T05:50:39;68.82;;;33.33;;
48667;SDS011;34453;52.198;5.004;2024-03-07T05:53:04;67.43;;;32.97;;
48667;SDS011;34453;52.198;5.004;2024-03-07T05:55:31;68.35;;;34.72;;
48667;SDS011;34453;52.198;5.004;2024-03-07T05:57:58;61.72;;;32.00;;
48667;SDS011;34453;52.198;5.004;2024-03-07T06:00:23;63.25;;;32.08;;
48667;SDS011;34453;52.198;5.004;2024-03-07T06:02:53;57.70;;;30.77;;
48667;SDS011;34453;52.198;5.004;2024-03-07T06:05:18;62.75;;;32.97;;
48667;SDS011;34453;52.198;5.004;2024-03-07T06:07:44;57.83;;;30.63;;
48667;SDS011;34453;52.198;5.004;2024-03-07T06:10:11;67.00;;;34.10;;
48667;SDS011;34453;52.198;5.004;2024-03-07T06:12:36;65.03;;;32.92;;
48667;SDS011;34453;52.198;5.004;2024-03-07T06:15:02;65.68;;;30.40;;
48667;SDS011;34453;52.198;5.004;2024-03-07T06:17:28;62.67;;;34.35;;
48667;SDS011;34453;52.198;5.004;2024-03-07T06:19:54;61.10;;;32.05;;
48667;SDS011;34453;52.198;5.004;2024-03-07T06:22:19;68.78;;;34.92;;
48667;SDS011;34453;52.198;5.004;2024-03-07T06:24:44;64.38;;;33.30;;
48667;SDS011;34453;52.198;5.004;2024-03-07T06:27:10;71.38;;;35.20;;
48667;SDS011;34453;52.198;5.004;2024-03-07T06:29:51;63.58;;;34.67;;
48667;SDS011;34453;52.198;5.004;2024-03-07T06:32:17;67.75;;;32.92;;
48667;SDS011;34453;52.198;5.004;2024-03-07T06:34:43;67.57;;;32.92;;
48667;SDS011;34453;52.198;5.004;2024-03-07T06:37:10;70.03;;;33.05;;
48667;SDS011;34453;52.198;5.004;2024-03-07T06:39:35;67.20;;;34.05;;
48667;SDS011;34453;52.198;5.004;2024-03-07T06:42:01;60.65;;;33.05;;
48667;SDS011;34453;52.198;5.004;2024-03-07T06:44:26;71.05;;;33.72;;
48667;SDS011;34453;52.198;5.004;2024-03-07T06:46:52;61.83;;;31.70;;
48667;SDS011;34453;52.198;5.004;2024-03-07T06:49:17;65.53;;;32.35;;
48667;SDS011;34453;52.198;5.004;2024-03-07T06:51:42;67.63;;;34.13;;
48667;SDS011;34453;52.198;5.004;2024-03-07T06:54:09;62.25;;;32.13;;
48667;SDS011;34453;52.198;5.004;2024-03-07T06:56:34;71.40;;;33.97;;
48667;SDS011;34453;52.198;5.004;2024-03-07T06:58:59;66.03;;;31.95;;
48667;SDS011;34453;52.198;5.004;2024-03-07T07:01:29;72.35;;;33.42;;
48667;SDS011;34453;52.198;5.004;2024-03-07T07:03:54;61.08;;;33.05;;
48667;SDS011;34453;52.198;5.004;2024-03-07T07:06:22;68.57;;;33.10;;
48667;SDS011;34453;52.198;5.004;2024-03-07T07:08:47;65.88;;;34.95;;
48667;SDS011;34453;52.198;5.004;2024-03-07T07:11:12;63.92;;;32.92;;
48667;SDS011;34453;52.198;5.004;2024-03-07T07:13:38;70.20;;;34.00;;
48667;SDS011;34453;52.198;5.004;2024-03-07T07:16:05;67.40;;;34.20;;
48667;SDS011;34453;52.198;5.004;2024-03-07T07:18:30;67.32;;;34.35;;
48667;SDS011;34453;52.198;5.004;2024-03-07T07:20:56;62.92;;;32.83;;
48667;SDS011;34453;52.198;5.004;2024-03-07T07:23:24;66.80;;;34.38;;
48667;SDS011;34453;52.198;5.004;2024-03-07T07:25:49;61.15;;;33.33;;
48667;SDS011;34453;52.198;5.004;2024-03-07T07:28:15;58.97;;;33.28;;
48667;SDS011;34453;52.198;5.004;2024-03-07T07:30:40;64.13;;;32.58;;
48667;SDS011;34453;52.198;5.004;2024-03-07T07:33:05;65.43;;;34.72;;
48667;SDS011;34453;52.198;5.004;2024-03-07T07:35:31;70.93;;;35.28;;
48667;SDS011;34453;52.198;5.004;2024-03-07T07:37:56;68.10;;;33.88;;
48667;SDS011;34453;52.198;5.004;2024-03-07T07:40:22;57.60;;;31.15;;
48667;SDS011;34453;52.198;5.004;2024-03-07T07:42:48;63.28;;;30.95;;
48667;SDS011;34453;52.198;5.004;2024-03-07T07:45:16;60.67;;;31.73;;
48667;SDS011;34453;52.198;5.004;2024-03-07T07:47:42;56.83;;;31.20;;
48667;SDS011;34453;52.198;5.004;2024-03-07T07:50:09;50.13;;;29.45;;
48667;SDS011;34453;52.198;5.004;2024-03-07T07:52:40;59.90;;;31.80;;
48667;SDS011;34453;52.198;5.004;2024-03-07T07:55:06;58.72;;;30.45;;
48667;SDS011;34453;52.198;5.004;2024-03-07T07:57:42;54.22;;;30.88;;
48667;SDS011;34453;52.198;5.004;2024-03-07T08:00:11;47.43;;;26.37;;
48667;SDS011;34453;52.198;5.004;2024-03-07T08:02:37;58.30;;;29.90;;
48667;SDS011;34453;52.198;5.004;2024-03-07T08:05:02;47.95;;;29.63;;
48667;SDS011;34453;52.198;5.004;2024-03-07T08:07:30;54.78;;;29.65;;
48667;SDS011;34453;52.198;5.004;2024-03-07T08:09:56;46.67;;;27.63;;
48667;SDS011;34453;52.198;5.004;2024-03-07T08:12:21;51.53;;;29.00;;
48667;SDS011;34453;52.198;5.004;2024-03-07T08:14:46;43.55;;;26.85;;
48667;SDS011;34453;52.198;5.004;2024-03-07T08:17:12;44.10;;;25.10;;
48667;SDS011;34453;52.198;5.004;2024-03-07T08:19:37;45.85;;;26.05;;
48667;SDS011;34453;52.198;5.004;2024-03-07T08:22:03;45.97;;;25.70;;
48667;SDS011;34453;52.198;5.004;2024-03-07T08:24:29;43.47;;;25.30;;
48667;SDS011;34453;52.198;5.004;2024-03-07T08:26:54;43.17;;;24.85;;
48667;SDS011;34453;52.198;5.004;2024-03-07T08:29:21;40.08;;;23.83;;
48667;SDS011;34453;52.198;5.004;2024-03-07T08:31:46;38.67;;;23.98;;
48667;SDS011;34453;52.198;5.004;2024-03-07T08:34:11;37.97;;;23.77;;
48667;SDS011;34453;52.198;5.004;2024-03-07T08:36:38;35.45;;;21.50;;
48667;SDS011;34453;52.198;5.004;2024-03-07T08:39:04;35.60;;;21.65;;
48667;SDS011;34453;52.198;5.004;2024-03-07T08:41:30;33.17;;;22.85;;
48667;SDS011;34453;52.198;5.004;2024-03-07T08:43:57;35.22;;;22.05;;
48667;SDS011;34453;52.198;5.004;2024-03-07T08:46:22;31.25;;;20.63;;
48667;SDS011;34453;52.198;5.004;2024-03-07T08:48:48;35.67;;;21.52;;
48667;SDS011;34453;52.198;5.004;2024-03-07T08:51:14;31.52;;;21.42;;
48667;SDS011;34453;52.198;5.004;2024-03-07T08:53:40;32.17;;;20.33;;
48667;SDS011;34453;52.198;5.004;2024-03-07T08:56:05;32.13;;;20.10;;
48667;SDS011;34453;52.198;5.004;2024-03-07T08:58:31;32.38;;;19.98;;
48667;SDS011;34453;52.198;5.004;2024-03-07T09:00:57;31.75;;;21.20;;
48667;SDS011;34453;52.198;5.004;2024-03-07T09:03:23;31.25;;;20.55;;
48667;SDS011;34453;52.198;5.004;2024-03-07T09:05:50;30.52;;;21.85;;
48667;SDS011;34453;52.198;5.004;2024-03-07T09:08:17;28.15;;;19.25;;
48667;SDS011;34453;52.198;5.004;2024-03-07T09:10:42;29.58;;;19.38;;
48667;SDS011;34453;52.198;5.004;2024-03-07T09:13:08;28.92;;;19.75;;
48667;SDS011;34453;52.198;5.004;2024-03-07T09:15:34;30.92;;;19.10;;
48667;SDS011;34453;52.198;5.004;2024-03-07T09:18:02;26.92;;;18.40;;
48667;SDS011;34453;52.198;5.004;2024-03-07T09:20:28;26.65;;;18.58;;
48667;SDS011;34453;52.198;5.004;2024-03-07T09:22:53;30.92;;;18.92;;
48667;SDS011;34453;52.198;5.004;2024-03-07T09:25:19;26.95;;;18.90;;
48667;SDS011;34453;52.198;5.004;2024-03-07T09:27:45;27.45;;;18.35;;
48667;SDS011;34453;52.198;5.004;2024-03-07T09:30:10;26.02;;;17.95;;
48667;SDS011;34453;52.198;5.004;2024-03-07T09:32:44;29.77;;;18.77;;
48667;SDS011;34453;52.198;5.004;2024-03-07T09:35:10;25.58;;;19.13;;
48667;SDS011;34453;52.198;5.004;2024-03-07T09:37:42;23.35;;;16.30;;
48667;SDS011;34453;52.198;5.004;2024-03-07T09:40:08;22.30;;;15.75;;
48667;SDS011;34453;52.198;5.004;2024-03-07T09:42:46;23.80;;;16.52;;
48667;SDS011;34453;52.198;5.004;2024-03-07T09:45:13;23.38;;;16.63;;
48667;SDS011;34453;52.198;5.004;2024-03-07T09:47:41;27.10;;;17.65;;
48667;SDS011;34453;52.198;5.004;2024-03-07T09:50:09;21.15;;;15.45;;
48667;SDS011;34453;52.198;5.004;2024-03-07T09:52:34;20.60;;;15.73;;
48667;SDS011;34453;52.198;5.004;2024-03-07T09:55:00;22.15;;;14.23;;
48667;SDS011;34453;52.198;5.004;2024-03-07T09:57:26;17.35;;;13.10;;
48667;SDS011;34453;52.198;5.004;2024-03-07T09:59:52;21.23;;;14.05;;
48667;SDS011;34453;52.198;5.004;2024-03-07T10:02:19;22.05;;;13.82;;
48667;SDS011;34453;52.198;5.004;2024-03-07T10:04:49;18.58;;;14.30;;
48667;SDS011;34453;52.198;5.004;2024-03-07T10:07:17;16.13;;;14.13;;
48667;SDS011;34453;52.198;5.004;2024-03-07T10:09:43;18.00;;;13.23;;
48667;SDS011;34453;52.198;5.004;2024-03-07T10:12:09;16.63;;;13.38;;
48667;SDS011;34453;52.198;5.004;2024-03-07T10:14:49;14.15;;;11.55;;
48667;SDS011;34453;52.198;5.004;2024-03-07T10:17:18;16.48;;;12.80;;
48667;SDS011;34453;52.198;5.004;2024-03-07T10:19:46;14.15;;;12.50;;
48667;SDS011;34453;52.198;5.004;2024-03-07T10:22:12;14.15;;;11.48;;
48667;SDS011;34453;52.198;5.004;2024-03-07T10:24:37;17.13;;;12.07;;
48667;SDS011;34453;52.198;5.004;2024-03-07T10:27:03;14.20;;;10.20;;
48667;SDS011;34453;52.198;5.004;2024-03-07T10:29:29;14.07;;;11.38;;
48667;SDS011;34453;52.198;5.004;2024-03-07T10:31:54;14.70;;;11.65;;
48667;SDS011;34453;52.198;5.004;2024-03-07T10:34:20;16.70;;;11.73;;
48667;SDS011;34453;52.198;5.004;2024-03-07T10:36:47;15.00;;;10.85;;
48667;SDS011;34453;52.198;5.004;2024-03-07T10:39:12;18.33;;;11.38;;
48667;SDS011;34453;52.198;5.004;2024-03-07T10:41:45;16.25;;;11.15;;
48667;SDS011;34453;52.198;5.004;2024-03-07T10:44:13;16.13;;;11.90;;
48667;SDS011;34453;52.198;5.004;2024-03-07T10:46:41;15.82;;;11.70;;
48667;SDS011;34453;52.198;5.004;2024-03-07T10:49:08;14.68;;;11.77;;
48667;SDS011;34453;52.198;5.004;2024-03-07T10:51:40;16.08;;;11.43;;
48667;SDS011;34453;52.198;5.004;2024-03-07T10:54:22;18.17;;;11.32;;
48667;SDS011;34453;52.198;5.004;2024-03-07T10:59:17;14.98;;;11.55;;
48667;SDS011;34453;52.198;5.004;2024-03-07T11:01:49;13.38;;;11.45;;
48667;SDS011;34453;52.198;5.004;2024-03-07T11:04:17;14.70;;;11.52;;
48667;SDS011;34453;52.198;5.004;2024-03-07T11:06:43;14.10;;;12.25;;
48667;SDS011;34453;52.198;5.004;2024-03-07T11:09:10;21.27;;;13.73;;
48667;SDS011;34453;52.198;5.004;2024-03-07T11:11:37;14.02;;;11.05;;
48667;SDS011;34453;52.198;5.004;2024-03-07T11:14:02;18.27;;;13.45;;
48667;SDS011;34453;52.198;5.004;2024-03-07T11:16:29;21.90;;;15.13;;
48667;SDS011;34453;52.198;5.004;2024-03-07T11:21:41;19.33;;;13.45;;
48667;SDS011;34453;52.198;5.004;2024-03-07T11:24:07;21.98;;;13.30;;
48667;SDS011;34453;52.198;5.004;2024-03-07T11:26:34;16.80;;;12.57;;
48667;SDS011;34453;52.198;5.004;2024-03-07T11:28:59;19.48;;;13.90;;
48667;SDS011;34453;52.198;5.004;2024-03-07T11:31:26;22.17;;;13.93;;
48667;SDS011;34453;52.198;5.004;2024-03-07T11:36:42;17.52;;;11.35;;
48667;SDS011;34453;52.198;5.004;2024-03-07T11:41:56;15.13;;;11.70;;
48667;SDS011;34453;52.198;5.004;2024-03-07T11:44:22;21.70;;;11.85;;
48667;SDS011;34453;52.198;5.004;2024-03-07T11:46:48;17.05;;;12.23;;
48667;SDS011;34453;52.198;5.004;2024-03-07T11:49:13;16.35;;;12.57;;
48667;SDS011;34453;52.198;5.004;2024-03-07T11:51:40;17.45;;;12.43;;
48667;SDS011;34453;52.198;5.004;2024-03-07T11:54:06;17.52;;;11.88;;
48667;SDS011;34453;52.198;5.004;2024-03-07T11:56:31;17.27;;;11.35;;
48667;SDS011;34453;52.198;5.004;2024-03-07T11:58:56;18.88;;;13.00;;
48667;SDS011;34453;52.198;5.004;2024-03-07T12:01:22;16.35;;;11.48;;
48667;SDS011;34453;52.198;5.004;2024-03-07T12:03:50;20.73;;;14.23;;
48667;SDS011;34453;52.198;5.004;2024-03-07T12:06:17;16.73;;;11.82;;
48667;SDS011;34453;52.198;5.004;2024-03-07T12:08:44;21.20;;;12.52;;
48667;SDS011;34453;52.198;5.004;2024-03-07T12:11:10;17.90;;;11.90;;
48667;SDS011;34453;52.198;5.004;2024-03-07T12:13:40;18.02;;;11.43;;
48667;SDS011;34453;52.198;5.004;2024-03-07T12:16:07;16.38;;;12.05;;
48667;SDS011;34453;52.198;5.004;2024-03-07T12:18:33;17.20;;;12.32;;
48667;SDS011;34453;52.198;5.004;2024-03-07T12:20:59;16.48;;;12.93;;
48667;SDS011;34453;52.198;5.004;2024-03-07T12:23:25;15.85;;;12.55;;
48667;SDS011;34453;52.198;5.004;2024-03-07T12:26:02;19.42;;;12.50;;
48667;SDS011;34453;52.198;5.004;2024-03-07T12:28:27;22.15;;;12.52;;
48667;SDS011;34453;52.198;5.004;2024-03-07T12:30:58;17.85;;;13.32;;
48667;SDS011;34453;52.198;5.004;2024-03-07T12:33:27;14.68;;;11.85;;
48667;SDS011;34453;52.198;5.004;2024-03-07T12:35:54;16.08;;;12.60;;
48667;SDS011;34453;52.198;5.004;2024-03-07T12:38:30;19.70;;;12.73;;
48667;SDS011;34453;52.198;5.004;2024-03-07T12:41:07;23.55;;;13.00;;
48667;SDS011;34453;52.198;5.004;2024-03-07T12:43:33;20.23;;;13.18;;
48667;SDS011;34453;52.198;5.004;2024-03-07T12:45:59;19.92;;;12.80;;
48667;SDS011;34453;52.198;5.004;2024-03-07T12:48:25;16.35;;;11.45;;
48667;SDS011;34453;52.198;5.004;2024-03-07T12:50:50;23.23;;;13.73;;
48667;SDS011;34453;52.198;5.004;2024-03-07T12:53:19;15.77;;;10.98;;
48667;SDS011;34453;52.198;5.004;2024-03-07T12:55:44;16.65;;;11.27;;
48667;SDS011;34453;52.198;5.004;2024-03-07T12:58:10;16.42;;;11.05;;
48667;SDS011;34453;52.198;5.004;2024-03-07T13:00:41;16.02;;;11.25;;
48667;SDS011;34453;52.198;5.004;2024-03-07T13:03:07;17.33;;;11.73;;
48667;SDS011;34453;52.198;5.004;2024-03-07T13:05:33;16.48;;;11.25;;
48667;SDS011;34453;52.198;5.004;2024-03-07T13:07:59;15.52;;;10.63;;
48667;SDS011;34453;52.198;5.004;2024-03-07T13:10:24;14.38;;;10.40;;
48667;SDS011;34453;52.198;5.004;2024-03-07T13:12:50;16.40;;;11.57;;
48667;SDS011;34453;52.198;5.004;2024-03-07T13:15:17;13.18;;;9.82;;
48667;SDS011;34453;52.198;5.004;2024-03-07T13:17:42;12.30;;;10.63;;
48667;SDS011;34453;52.198;5.004;2024-03-07T13:20:08;18.77;;;10.93;;
48667;SDS011;34453;52.198;5.004;2024-03-07T13:22:43;16.23;;;11.82;;
48667;SDS011;34453;52.198;5.004;2024-03-07T13:25:09;20.70;;;11.70;;
48667;SDS011;34453;52.198;5.004;2024-03-07T13:27:52;14.23;;;10.77;;
48667;SDS011;34453;52.198;5.004;2024-03-07T13:30:20;14.75;;;10.05;;
48667;SDS011;34453;52.198;5.004;2024-03-07T13:32:52;15.05;;;10.10;;
48667;SDS011;34453;52.198;5.004;2024-03-07T13:35:18;13.60;;;10.38;;
48667;SDS011;34453;52.198;5.004;2024-03-07T13:37:45;15.07;;;9.77;;
48667;SDS011;34453;52.198;5.004;2024-03-07T13:40:12;14.75;;;9.93;;
48667;SDS011;34453;52.198;5.004;2024-03-07T13:42:48;15.77;;;10.80;;
48667;SDS011;34453;52.198;5.004;2024-03-07T13:45:13;15.45;;;11.98;;
48667;SDS011;34453;52.198;5.004;2024-03-07T13:47:38;14.75;;;10.73;;
48667;SDS011;34453;52.198;5.004;2024-03-07T13:50:04;18.17;;;11.98;;
48667;SDS011;34453;52.198;5.004;2024-03-07T13:52:29;16.42;;;11.68;;
48667;SDS011;34453;52.198;5.004;2024-03-07T13:54:57;13.13;;;11.02;;
48667;SDS011;34453;52.198;5.004;2024-03-07T13:57:29;13.48;;;11.45;;
48667;SDS011;34453;52.198;5.004;2024-03-07T14:29:03;14.17;;;11.43;;
48667;SDS011;34453;52.198;5.004;2024-03-07T14:31:31;14.73;;;10.48;;
48667;SDS011;34453;52.198;5.004;2024-03-07T14:36:31;13.30;;;11.07;;
48667;SDS011;34453;52.198;5.004;2024-03-07T14:38:57;14.45;;;10.82;;
48667;SDS011;34453;52.198;5.004;2024-03-07T14:44:06;15.82;;;11.27;;
48667;SDS011;34453;52.198;5.004;2024-03-07T14:46:32;17.00;;;12.30;;
48667;SDS011;34453;52.198;5.004;2024-03-07T14:48:58;15.80;;;11.98;;
48667;SDS011;34453;52.198;5.004;2024-03-07T14:51:23;19.85;;;14.18;;
48667;SDS011;34453;52.198;5.004;2024-03-07T14:53:50;15.45;;;12.13;;
48667;SDS011;34453;52.198;5.004;2024-03-07T14:56:16;16.00;;;12.57;;
48667;SDS011;34453;52.198;5.004;2024-03-07T14:58:44;18.13;;;12.48;;
48667;SDS011;34453;52.198;5.004;2024-03-07T15:01:11;16.33;;;12.52;;
48667;SDS011;34453;52.198;5.004;2024-03-07T15:03:38;17.27;;;12.15;;